sensor_id;sensor_type;location;lat;lon;timestamp;pressure;altitude;pressure_sealevel;temperature;humidity
74798;BME280;63326;45.088;7.658;2023-02-12T00:02:25;100302.06;;;1.28;56.53
74798;BME280;63326;45.088;7.658;2023-02-12T00:04:52;100315.38;;;1.42;56.61
74798;BME280;63326;45.088;7.658;2023-02-12T00:07:19;100334.66;;;1.60;56.01
74798;BME280;63326;45.088;7.658;2023-02-12T00:09:45;100315.47;;;1.56;56.98
74798;BME280;63326;45.088;7.658;2023-02-12T00:12:12;100321.88;;;1.68;55.88
74798;BME280;63326;45.088;7.658;2023-02-12T00:14:39;100312.06;;;1.70;56.53
74798;BME280;63326;45.088;7.658;2023-02-12T00:17:05;100316.84;;;1.79;56.12
74798;BME280;63326;45.088;7.658;2023-02-12T00:19:32;100261.06;;;1.52;56.32
74798;BME280;63326;45.088;7.658;2023-02-12T00:21:59;100308.19;;;1.91;55.30
74798;BME280;63326;45.088;7.658;2023-02-12T00:24:25;100322.53;;;2.03;54.74
74798;BME280;63326;45.088;7.658;2023-02-12T00:26:53;100280.31;;;1.86;53.74
74798;BME280;63326;45.088;7.658;2023-02-12T00:29:20;100314.94;;;1.97;54.14
74798;BME280;63326;45.088;7.658;2023-02-12T00:31:47;100238.72;;;1.42;55.07
74798;BME280;63326;45.088;7.658;2023-02-12T00:34:14;100289.47;;;1.64;55.86
74798;BME280;63326;45.088;7.658;2023-02-12T00:36:41;100289.03;;;1.56;56.13
74798;BME280;63326;45.088;7.658;2023-02-12T00:39:09;100302.00;;;1.61;56.57
74798;BME280;63326;45.088;7.658;2023-02-12T00:41:36;100310.69;;;1.63;56.18
74798;BME280;63326;45.088;7.658;2023-02-12T00:44:02;100301.91;;;1.62;55.00
74798;BME280;63326;45.088;7.658;2023-02-12T00:46:29;100306.09;;;1.66;55.40
74798;BME280;63326;45.088;7.658;2023-02-12T00:48:56;100293.47;;;1.56;55.60
74798;BME280;63326;45.088;7.658;2023-02-12T00:51:22;100295.94;;;1.59;56.55
74798;BME280;63326;45.088;7.658;2023-02-12T00:53:49;100308.81;;;1.49;57.36
74798;BME280;63326;45.088;7.658;2023-02-12T00:56:16;100303.69;;;1.46;57.42
74798;BME280;63326;45.088;7.658;2023-02-12T00:58:42;100292.88;;;1.35;58.47
74798;BME280;63326;45.088;7.658;2023-02-12T01:01:09;100304.78;;;1.42;57.15
74798;BME280;63326;45.088;7.658;2023-02-12T01:03:36;100252.44;;;1.17;55.53
74798;BME280;63326;45.088;7.658;2023-02-12T01:06:04;100288.09;;;1.41;57.86
74798;BME280;63326;45.088;7.658;2023-02-12T01:08:31;100273.94;;;1.27;57.92
74798;BME280;63326;45.088;7.658;2023-02-12T01:11:00;100302.09;;;1.43;56.61
74798;BME280;63326;45.088;7.658;2023-02-12T01:13:28;100298.25;;;1.33;57.73
74798;BME280;63326;45.088;7.658;2023-02-12T01:16:11;100298.31;;;1.32;57.38
74798;BME280;63326;45.088;7.658;2023-02-12T01:18:40;100297.81;;;1.25;57.44
74798;BME280;63326;45.088;7.658;2023-02-12T01:21:13;100292.75;;;1.05;59.00
74798;BME280;63326;45.088;7.658;2023-02-12T01:23:40;100291.13;;;1.02;58.67
74798;BME280;63326;45.088;7.658;2023-02-12T01:26:08;100295.31;;;0.89;59.47
74798;BME280;63326;45.088;7.658;2023-02-12T01:28:39;100284.09;;;0.85;59.72
74798;BME280;63326;45.088;7.658;2023-02-12T01:31:16;100276.91;;;0.72;59.11
74798;BME280;63326;45.088;7.658;2023-02-12T01:33:46;100282.31;;;0.69;59.85
74798;BME280;63326;45.088;7.658;2023-02-12T01:36:13;100286.06;;;0.65;59.95
74798;BME280;63326;45.088;7.658;2023-02-12T01:38:40;100239.59;;;0.27;60.23
74798;BME280;63326;45.088;7.658;2023-02-12T01:41:16;100275.59;;;0.46;60.08
74798;BME280;63326;45.088;7.658;2023-02-12T01:43:45;100288.53;;;0.50;59.93
74798;BME280;63326;45.088;7.658;2023-02-12T01:46:30;100284.84;;;0.54;59.39
74798;BME280;63326;45.088;7.658;2023-02-12T01:48:57;100258.38;;;0.39;59.67
74798;BME280;63326;45.088;7.658;2023-02-12T01:51:24;100272.97;;;0.46;59.50
74798;BME280;63326;45.088;7.658;2023-02-12T01:53:53;100255.25;;;0.31;60.33
74798;BME280;63326;45.088;7.658;2023-02-12T01:56:21;100252.94;;;0.42;60.34
74798;BME280;63326;45.088;7.658;2023-02-12T01:58:49;100274.03;;;0.59;60.01
74798;BME280;63326;45.088;7.658;2023-02-12T02:01:26;100275.59;;;0.63;58.98
74798;BME280;63326;45.088;7.658;2023-02-12T02:03:57;100267.81;;;0.60;59.20
74798;BME280;63326;45.088;7.658;2023-02-12T02:06:29;100249.50;;;0.57;59.30
74798;BME280;63326;45.088;7.658;2023-02-12T02:08:59;100227.00;;;0.50;58.55
74798;BME280;63326;45.088;7.658;2023-02-12T02:11:26;100255.63;;;0.57;59.06
74798;BME280;63326;45.088;7.658;2023-02-12T02:14:12;100257.72;;;0.51;59.51
74798;BME280;63326;45.088;7.658;2023-02-12T02:17:37;100260.91;;;0.40;59.44
74798;BME280;63326;45.088;7.658;2023-02-12T02:28:36;100241.09;;;0.33;60.01
74798;BME280;63326;45.088;7.658;2023-02-12T02:36:39;100237.72;;;0.29;60.97
74798;BME280;63326;45.088;7.658;2023-02-12T02:39:38;100236.00;;;0.46;60.46
74798;BME280;63326;45.088;7.658;2023-02-12T02:42:29;100228.09;;;0.46;60.68
74798;BME280;63326;45.088;7.658;2023-02-12T02:45:14;100216.38;;;0.51;59.46
74798;BME280;63326;45.088;7.658;2023-02-12T02:47:54;100230.34;;;0.53;60.04
74798;BME280;63326;45.088;7.658;2023-02-12T02:50:23;100220.88;;;0.49;61.17
74798;BME280;63326;45.088;7.658;2023-02-12T02:53:09;100200.19;;;0.42;60.34
74798;BME280;63326;45.088;7.658;2023-02-12T02:55:50;100208.22;;;0.39;60.54
74798;BME280;63326;45.088;7.658;2023-02-12T02:58:22;100200.22;;;0.40;61.09
74798;BME280;63326;45.088;7.658;2023-02-12T03:00:55;100210.09;;;0.54;60.94
74798;BME280;63326;45.088;7.658;2023-02-12T03:03:45;100205.66;;;0.54;61.32
74798;BME280;63326;45.088;7.658;2023-02-12T03:06:24;100208.03;;;0.59;61.36
74798;BME280;63326;45.088;7.658;2023-02-12T03:08:57;100195.59;;;0.45;62.06
74798;BME280;63326;45.088;7.658;2023-02-12T03:11:29;100208.78;;;0.45;62.20
74798;BME280;63326;45.088;7.658;2023-02-12T03:17:04;100206.59;;;0.53;61.82
74798;BME280;63326;45.088;7.658;2023-02-12T03:19:37;100204.44;;;0.44;62.09
74798;BME280;63326;45.088;7.658;2023-02-12T03:25:14;100199.38;;;0.40;63.01
74798;BME280;63326;45.088;7.658;2023-02-12T03:27:48;100202.94;;;0.56;62.61
74798;BME280;63326;45.088;7.658;2023-02-12T03:30:18;100185.50;;;0.36;62.49
74798;BME280;63326;45.088;7.658;2023-02-12T03:33:12;100179.78;;;0.28;62.85
74798;BME280;63326;45.088;7.658;2023-02-12T03:35:54;100185.75;;;0.32;63.02
74798;BME280;63326;45.088;7.658;2023-02-12T03:41:08;100170.72;;;0.16;62.44
74798;BME280;63326;45.088;7.658;2023-02-12T03:46:16;100191.81;;;0.16;63.25
74798;BME280;63326;45.088;7.658;2023-02-12T03:48:57;100195.94;;;0.22;63.63
74798;BME280;63326;45.088;7.658;2023-02-12T03:51:34;100210.78;;;0.40;62.96
74798;BME280;63326;45.088;7.658;2023-02-12T03:54:02;100187.00;;;0.24;62.90
74798;BME280;63326;45.088;7.658;2023-02-12T03:56:40;100205.22;;;0.29;63.28
74798;BME280;63326;45.088;7.658;2023-02-12T03:59:09;100180.88;;;0.24;62.99
74798;BME280;63326;45.088;7.658;2023-02-12T04:01:36;100224.44;;;0.48;63.46
74798;BME280;63326;45.088;7.658;2023-02-12T04:04:05;100229.81;;;0.47;62.97
74798;BME280;63326;45.088;7.658;2023-02-12T04:06:33;100229.63;;;0.50;63.12
74798;BME280;63326;45.088;7.658;2023-02-12T04:09:05;100207.47;;;0.37;63.25
74798;BME280;63326;45.088;7.658;2023-02-12T04:22:45;100239.47;;;0.13;64.20
74798;BME280;63326;45.088;7.658;2023-02-12T04:28:24;100245.03;;;0.07;64.71
74798;BME280;63326;45.088;7.658;2023-02-12T04:31:07;100250.31;;;0.07;63.89
74798;BME280;63326;45.088;7.658;2023-02-12T04:33:47;100246.72;;;0.08;63.91
74798;BME280;63326;45.088;7.658;2023-02-12T04:36:22;100240.22;;;-0.02;64.43
74798;BME280;63326;45.088;7.658;2023-02-12T04:38:54;100247.13;;;0.01;64.61
74798;BME280;63326;45.088;7.658;2023-02-12T04:41:24;100250.22;;;0.09;64.76
74798;BME280;63326;45.088;7.658;2023-02-12T04:43:51;100252.72;;;0.12;64.57
74798;BME280;63326;45.088;7.658;2023-02-12T04:46:17;100247.81;;;0.04;64.67
74798;BME280;63326;45.088;7.658;2023-02-12T04:48:57;100250.78;;;0.15;64.17
74798;BME280;63326;45.088;7.658;2023-02-12T04:51:24;100249.16;;;0.13;64.89
74798;BME280;63326;45.088;7.658;2023-02-12T04:53:50;100250.13;;;0.10;64.56
74798;BME280;63326;45.088;7.658;2023-02-12T04:56:17;100245.41;;;-0.01;65.26
74798;BME280;63326;45.088;7.658;2023-02-12T04:58:44;100245.94;;;-0.11;65.56
74798;BME280;63326;45.088;7.658;2023-02-12T05:01:10;100198.47;;;-0.46;65.46
74798;BME280;63326;45.088;7.658;2023-02-12T05:03:37;100246.56;;;-0.23;65.80
74798;BME280;63326;45.088;7.658;2023-02-12T05:06:06;100247.06;;;-0.34;66.03
74798;BME280;63326;45.088;7.658;2023-02-12T05:08:33;100247.16;;;-0.36;66.36
74798;BME280;63326;45.088;7.658;2023-02-12T05:11:08;100227.44;;;-0.46;66.20
74798;BME280;63326;45.088;7.658;2023-02-12T05:13:35;100248.84;;;-0.35;66.01
74798;BME280;63326;45.088;7.658;2023-02-12T05:16:03;100194.25;;;-0.67;66.04
74798;BME280;63326;45.088;7.658;2023-02-12T05:18:31;100217.91;;;-0.48;66.13
74798;BME280;63326;45.088;7.658;2023-02-12T05:20:59;100220.38;;;-0.45;66.40
74798;BME280;63326;45.088;7.658;2023-02-12T05:23:27;100250.97;;;-0.24;66.42
74798;BME280;63326;45.088;7.658;2023-02-12T05:25:57;100255.19;;;-0.20;66.04
74798;BME280;63326;45.088;7.658;2023-02-12T05:28:24;100244.69;;;-0.21;65.88
74798;BME280;63326;45.088;7.658;2023-02-12T05:30:51;100244.69;;;-0.21;65.91
74798;BME280;63326;45.088;7.658;2023-02-12T05:33:18;100253.91;;;-0.30;66.34
74798;BME280;63326;45.088;7.658;2023-02-12T05:35:44;100246.13;;;-0.33;66.48
74798;BME280;63326;45.088;7.658;2023-02-12T05:38:11;100247.16;;;-0.36;66.75
74798;BME280;63326;45.088;7.658;2023-02-12T05:40:38;100243.59;;;-0.35;66.40
74798;BME280;63326;45.088;7.658;2023-02-12T05:43:05;100260.31;;;-0.36;67.22
74798;BME280;63326;45.088;7.658;2023-02-12T05:45:32;100257.06;;;-0.41;66.66
74798;BME280;63326;45.088;7.658;2023-02-12T05:47:58;100243.41;;;-0.49;66.82
74798;BME280;63326;45.088;7.658;2023-02-12T05:50:25;100233.66;;;-0.47;66.80
74798;BME280;63326;45.088;7.658;2023-02-12T05:52:59;100223.38;;;-0.53;66.77
74798;BME280;63326;45.088;7.658;2023-02-12T05:55:26;100237.56;;;-0.55;67.41
74798;BME280;63326;45.088;7.658;2023-02-12T05:57:53;100240.63;;;-0.65;67.24
74798;BME280;63326;45.088;7.658;2023-02-12T06:00:20;100217.03;;;-0.85;67.70
74798;BME280;63326;45.088;7.658;2023-02-12T06:02:47;100229.91;;;-0.79;67.98
74798;BME280;63326;45.088;7.658;2023-02-12T06:05:13;100206.16;;;-0.96;68.40
74798;BME280;63326;45.088;7.658;2023-02-12T06:07:40;100241.50;;;-0.83;68.17
74798;BME280;63326;45.088;7.658;2023-02-12T06:10:07;100240.53;;;-0.80;68.57
74798;BME280;63326;45.088;7.658;2023-02-12T06:12:34;100233.59;;;-0.83;68.04
74798;BME280;63326;45.088;7.658;2023-02-12T06:15:01;100241.56;;;-0.84;68.33
74798;BME280;63326;45.088;7.658;2023-02-12T06:17:27;100214.13;;;-0.98;67.32
74798;BME280;63326;45.088;7.658;2023-02-12T06:19:54;100224.06;;;-0.85;67.41
74798;BME280;63326;45.088;7.658;2023-02-12T06:22:21;100196.13;;;-1.07;67.16
74798;BME280;63326;45.088;7.658;2023-02-12T06:24:47;100225.00;;;-0.87;67.48
74798;BME280;63326;45.088;7.658;2023-02-12T06:27:15;100236.72;;;-0.75;67.45
74798;BME280;63326;45.088;7.658;2023-02-12T06:29:42;100229.56;;;-0.71;67.51
74798;BME280;63326;45.088;7.658;2023-02-12T06:32:08;100196.31;;;-0.93;67.19
74798;BME280;63326;45.088;7.658;2023-02-12T06:34:39;100228.63;;;-0.70;67.87
74798;BME280;63326;45.088;7.658;2023-02-12T06:37:06;100233.81;;;-0.69;67.65
74798;BME280;63326;45.088;7.658;2023-02-12T06:39:33;100235.59;;;-0.69;68.43
74798;BME280;63326;45.088;7.658;2023-02-12T06:42:00;100236.53;;;-0.70;68.00
74798;BME280;63326;45.088;7.658;2023-02-12T06:44:26;100228.75;;;-0.73;68.18
74798;BME280;63326;45.088;7.658;2023-02-12T06:46:53;100209.97;;;-0.84;67.96
74798;BME280;63326;45.088;7.658;2023-02-12T06:49:20;100229.59;;;-0.73;68.22
74798;BME280;63326;45.088;7.658;2023-02-12T06:51:47;100206.81;;;-0.91;68.04
74798;BME280;63326;45.088;7.658;2023-02-12T06:54:16;100234.69;;;-0.68;67.61
74798;BME280;63326;45.088;7.658;2023-02-12T06:56:43;100233.59;;;-0.64;67.26
74798;BME280;63326;45.088;7.658;2023-02-12T06:59:14;100226.47;;;-0.62;67.20
74798;BME280;63326;45.088;7.658;2023-02-12T07:01:41;100218.28;;;-0.56;66.84
74798;BME280;63326;45.088;7.658;2023-02-12T07:04:09;100235.28;;;-0.44;66.63
74798;BME280;63326;45.088;7.658;2023-02-12T07:06:36;100233.75;;;-0.31;66.42
74798;BME280;63326;45.088;7.658;2023-02-12T07:09:03;100239.13;;;-0.15;66.09
74798;BME280;63326;45.088;7.658;2023-02-12T07:11:32;100201.13;;;-0.11;64.79
74798;BME280;63326;45.088;7.658;2023-02-12T07:14:03;100246.88;;;0.40;64.75
74798;BME280;63326;45.088;7.658;2023-02-12T07:16:30;100239.22;;;0.68;63.83
74798;BME280;63326;45.088;7.658;2023-02-12T07:18:56;100246.81;;;1.07;62.98
74798;BME280;63326;45.088;7.658;2023-02-12T07:21:23;100225.34;;;1.29;62.45
74798;BME280;63326;45.088;7.658;2023-02-12T07:23:51;100256.63;;;1.84;61.89
74798;BME280;63326;45.088;7.658;2023-02-12T07:26:19;100260.34;;;2.26;60.35
74798;BME280;63326;45.088;7.658;2023-02-12T07:28:46;100260.34;;;2.70;59.19
74798;BME280;63326;45.088;7.658;2023-02-12T07:31:16;100262.13;;;3.12;58.02
74798;BME280;63326;45.088;7.658;2023-02-12T07:33:44;100264.19;;;3.50;55.57
74798;BME280;63326;45.088;7.658;2023-02-12T07:36:13;100267.59;;;3.79;55.05
74798;BME280;63326;45.088;7.658;2023-02-12T07:38:40;100248.59;;;3.99;53.42
74798;BME280;63326;45.088;7.658;2023-02-12T07:41:15;100259.16;;;4.39;52.89
74798;BME280;63326;45.088;7.658;2023-02-12T07:43:44;100253.56;;;4.69;51.64
74798;BME280;63326;45.088;7.658;2023-02-12T07:46:13;100259.31;;;4.88;51.25
74798;BME280;63326;45.088;7.658;2023-02-12T07:48:43;100259.63;;;5.22;50.33
74798;BME280;63326;45.088;7.658;2023-02-12T07:51:12;100268.13;;;5.64;48.26
74798;BME280;63326;45.088;7.658;2023-02-12T07:53:39;100271.34;;;5.93;48.01
74798;BME280;63326;45.088;7.658;2023-02-12T07:56:08;100264.06;;;6.19;47.27
74798;BME280;63326;45.088;7.658;2023-02-12T07:58:36;100272.94;;;6.54;46.57
74798;BME280;63326;45.088;7.658;2023-02-12T08:01:23;100276.25;;;6.80;44.47
74798;BME280;63326;45.088;7.658;2023-02-12T08:03:50;100276.41;;;7.12;45.16
74798;BME280;63326;45.088;7.658;2023-02-12T08:06:20;100276.91;;;7.40;44.51
74798;BME280;63326;45.088;7.658;2023-02-12T08:08:52;100288.25;;;7.64;43.31
74798;BME280;63326;45.088;7.658;2023-02-12T08:11:20;100284.22;;;7.92;42.84
74798;BME280;63326;45.088;7.658;2023-02-12T08:13:47;100280.09;;;7.88;42.10
74798;BME280;63326;45.088;7.658;2023-02-12T08:16:17;100291.09;;;7.95;40.92
74798;BME280;63326;45.088;7.658;2023-02-12T08:18:44;100256.78;;;7.90;42.10
74798;BME280;63326;45.088;7.658;2023-02-12T08:21:20;100310.63;;;8.50;40.28
74798;BME280;63326;45.088;7.658;2023-02-12T08:23:48;100311.09;;;8.76;39.79
74798;BME280;63326;45.088;7.658;2023-02-12T08:26:19;100302.28;;;8.64;39.62
74798;BME280;63326;45.088;7.658;2023-02-12T08:28:53;100307.31;;;8.78;39.13
74798;BME280;63326;45.088;7.658;2023-02-12T08:31:22;100299.16;;;9.01;39.38
74798;BME280;63326;45.088;7.658;2023-02-12T08:33:51;100297.16;;;8.72;38.94
74798;BME280;63326;45.088;7.658;2023-02-12T08:36:20;100286.50;;;9.33;38.79
74798;BME280;63326;45.088;7.658;2023-02-12T08:38:48;100303.84;;;8.66;37.84
74798;BME280;63326;45.088;7.658;2023-02-12T08:43:47;100301.91;;;9.10;37.54
74798;BME280;63326;45.088;7.658;2023-02-12T08:46:18;100306.13;;;9.84;36.49
74798;BME280;63326;45.088;7.658;2023-02-12T08:48:45;100303.31;;;9.85;35.83
74798;BME280;63326;45.088;7.658;2023-02-12T08:51:18;100298.03;;;9.64;36.39
74798;BME280;63326;45.088;7.658;2023-02-12T08:53:46;100301.28;;;10.27;36.27
74798;BME280;63326;45.088;7.658;2023-02-12T08:56:16;100309.06;;;10.50;35.07
74798;BME280;63326;45.088;7.658;2023-02-12T08:58:43;100304.53;;;10.60;34.92
74798;BME280;63326;45.088;7.658;2023-02-12T09:01:12;100304.81;;;10.66;34.46
74798;BME280;63326;45.088;7.658;2023-02-12T09:03:39;100286.44;;;10.81;34.20
74798;BME280;63326;45.088;7.658;2023-02-12T09:06:06;100305.38;;;11.36;33.54
74798;BME280;63326;45.088;7.658;2023-02-12T09:08:34;100300.06;;;11.54;33.01
74798;BME280;63326;45.088;7.658;2023-02-12T09:11:05;100270.50;;;11.27;32.43
74798;BME280;63326;45.088;7.658;2023-02-12T09:13:33;100263.88;;;11.58;32.38
74798;BME280;63326;45.088;7.658;2023-02-12T09:16:02;100273.81;;;11.48;32.29
74798;BME280;63326;45.088;7.658;2023-02-12T09:18:30;100268.97;;;11.79;30.97
74798;BME280;63326;45.088;7.658;2023-02-12T09:21:07;100278.72;;;12.43;30.23
74798;BME280;63326;45.088;7.658;2023-02-12T09:23:35;100285.47;;;12.65;29.55
74798;BME280;63326;45.088;7.658;2023-02-12T09:26:04;100291.72;;;13.35;28.65
74798;BME280;63326;45.088;7.658;2023-02-12T09:28:31;100293.22;;;13.30;27.71
74798;BME280;63326;45.088;7.658;2023-02-12T09:30:58;100292.44;;;13.45;28.12
74798;BME280;63326;45.088;7.658;2023-02-12T09:33:29;100293.16;;;13.55;27.45
74798;BME280;63326;45.088;7.658;2023-02-12T09:36:03;100263.53;;;13.55;27.36
74798;BME280;63326;45.088;7.658;2023-02-12T09:38:31;100285.75;;;13.23;27.93
74798;BME280;63326;45.088;7.658;2023-02-12T09:46:31;100257.47;;;13.53;26.60
74798;BME280;63326;45.088;7.658;2023-02-12T09:49:07;100280.28;;;14.42;26.01
74798;BME280;63326;45.088;7.658;2023-02-12T09:51:37;100278.56;;;14.25;25.75
74798;BME280;63326;45.088;7.658;2023-02-12T09:54:11;100253.94;;;14.11;25.61
74798;BME280;63326;45.088;7.658;2023-02-12T09:56:42;100283.88;;;13.92;26.32
74798;BME280;63326;45.088;7.658;2023-02-12T09:59:12;100296.13;;;15.10;25.29
74798;BME280;63326;45.088;7.658;2023-02-12T10:01:41;100299.34;;;15.06;24.43
74798;BME280;63326;45.088;7.658;2023-02-12T10:04:08;100291.44;;;14.80;25.26
74798;BME280;63326;45.088;7.658;2023-02-12T10:06:40;100292.00;;;15.47;24.63
74798;BME280;63326;45.088;7.658;2023-02-12T10:15:12;100293.31;;;16.29;22.79
74798;BME280;63326;45.088;7.658;2023-02-12T10:25:50;100299.28;;;16.48;22.05
74798;BME280;63326;45.088;7.658;2023-02-12T10:28:25;100294.34;;;16.97;21.03
74798;BME280;63326;45.088;7.658;2023-02-12T10:31:15;100269.91;;;17.20;20.67
74798;BME280;63326;45.088;7.658;2023-02-12T10:33:47;100275.97;;;18.17;19.68
74798;BME280;63326;45.088;7.658;2023-02-12T10:36:41;100302.19;;;18.46;18.60
74798;BME280;63326;45.088;7.658;2023-02-12T10:39:27;100302.28;;;18.95;18.38
74798;BME280;63326;45.088;7.658;2023-02-12T10:41:59;100277.00;;;17.36;18.71
74798;BME280;63326;45.088;7.658;2023-02-12T10:44:28;100299.34;;;16.85;19.55
74798;BME280;63326;45.088;7.658;2023-02-12T10:46:56;100294.97;;;17.51;19.53
74798;BME280;63326;45.088;7.658;2023-02-12T10:49:23;100293.97;;;17.15;19.33
74798;BME280;63326;45.088;7.658;2023-02-12T10:52:02;100288.59;;;17.30;19.55
74798;BME280;63326;45.088;7.658;2023-02-12T10:54:45;100291.81;;;18.13;18.92
74798;BME280;63326;45.088;7.658;2023-02-12T10:57:22;100286.53;;;17.32;19.70
74798;BME280;63326;45.088;7.658;2023-02-12T10:59:51;100283.13;;;18.39;18.59
74798;BME280;63326;45.088;7.658;2023-02-12T11:04:49;100278.03;;;19.56;17.70
74798;BME280;63326;45.088;7.658;2023-02-12T11:07:16;100266.84;;;19.79;17.23
74798;BME280;63326;45.088;7.658;2023-02-12T11:09:48;100279.16;;;19.41;17.37
74798;BME280;63326;45.088;7.658;2023-02-12T11:12:23;100269.75;;;20.39;16.61
74798;BME280;63326;45.088;7.658;2023-02-12T11:14:53;100267.50;;;20.49;16.14
74798;BME280;63326;45.088;7.658;2023-02-12T11:17:27;100260.88;;;20.10;16.61
74798;BME280;63326;45.088;7.658;2023-02-12T11:20:28;100265.00;;;21.20;15.77
74798;BME280;63326;45.088;7.658;2023-02-12T11:23:00;100259.13;;;21.10;15.65
74798;BME280;63326;45.088;7.658;2023-02-12T11:25:33;100264.88;;;20.08;16.68
74798;BME280;63326;45.088;7.658;2023-02-12T11:28:14;100262.91;;;21.16;15.58
74798;BME280;63326;45.088;7.658;2023-02-12T11:33:36;100250.09;;;22.64;14.86
74798;BME280;63326;45.088;7.658;2023-02-12T11:36:15;100243.28;;;23.05;14.17
74798;BME280;63326;45.088;7.658;2023-02-12T11:38:54;100243.63;;;23.33;13.81
74798;BME280;63326;45.088;7.658;2023-02-12T11:43:49;100225.06;;;23.53;13.78
74798;BME280;63326;45.088;7.658;2023-02-12T11:46:21;100229.81;;;24.13;13.09
74798;BME280;63326;45.088;7.658;2023-02-12T11:48:50;100208.19;;;23.38;13.70
74798;BME280;63326;45.088;7.658;2023-02-12T11:51:24;100224.53;;;23.45;13.83
74798;BME280;63326;45.088;7.658;2023-02-12T11:53:52;100238.84;;;22.79;14.46
74798;BME280;63326;45.088;7.658;2023-02-12T11:56:20;100242.78;;;22.89;14.09
74798;BME280;63326;45.088;7.658;2023-02-12T11:58:48;100237.84;;;22.73;13.72
74798;BME280;63326;45.088;7.658;2023-02-12T12:01:27;100223.84;;;22.88;13.45
74798;BME280;63326;45.088;7.658;2023-02-12T12:04:01;100244.72;;;23.07;12.81
74798;BME280;63326;45.088;7.658;2023-02-12T12:06:55;100237.31;;;23.69;13.13
74798;BME280;63326;45.088;7.658;2023-02-12T12:09:40;100235.13;;;23.78;12.74
74798;BME280;63326;45.088;7.658;2023-02-12T12:12:22;100229.09;;;23.33;13.00
74798;BME280;63326;45.088;7.658;2023-02-12T12:15:09;100227.34;;;23.93;12.64
74798;BME280;63326;45.088;7.658;2023-02-12T12:21:08;100219.63;;;24.97;11.66
74798;BME280;63326;45.088;7.658;2023-02-12T12:23:48;100199.34;;;25.33;11.54
74798;BME280;63326;45.088;7.658;2023-02-12T12:26:27;100222.53;;;25.14;11.58
74798;BME280;63326;45.088;7.658;2023-02-12T12:29:16;100198.53;;;22.67;12.90
74798;BME280;63326;45.088;7.658;2023-02-12T12:31:57;100209.94;;;24.29;11.97
74798;BME280;63326;45.088;7.658;2023-02-12T12:34:26;100189.56;;;23.28;12.76
74798;BME280;63326;45.088;7.658;2023-02-12T13:10:12;100191.81;;;25.92;10.49
74798;BME280;63326;45.088;7.658;2023-02-12T13:15:24;100168.00;;;27.10;9.83
74798;BME280;63326;45.088;7.658;2023-02-12T13:28:11;100168.91;;;28.30;8.89
74798;BME280;63326;45.088;7.658;2023-02-12T13:30:44;100178.03;;;28.68;9.06
74798;BME280;63326;45.088;7.658;2023-02-12T13:33:22;100180.53;;;28.69;8.64
74798;BME280;63326;45.088;7.658;2023-02-12T13:35:55;100171.75;;;28.78;8.28
74798;BME280;63326;45.088;7.658;2023-02-12T13:38:28;100144.53;;;28.54;8.44
74798;BME280;63326;45.088;7.658;2023-02-12T13:41:04;100177.31;;;28.83;8.53
74798;BME280;63326;45.088;7.658;2023-02-12T13:44:00;100176.00;;;28.90;8.52
74798;BME280;63326;45.088;7.658;2023-02-12T13:46:53;100178.06;;;29.05;8.46
74798;BME280;63326;45.088;7.658;2023-02-12T13:49:49;100166.34;;;29.40;8.23
74798;BME280;63326;45.088;7.658;2023-02-12T13:57:27;100153.84;;;29.95;8.16
74798;BME280;63326;45.088;7.658;2023-02-12T13:59:54;100165.94;;;29.64;8.03
74798;BME280;63326;45.088;7.658;2023-02-12T14:07:19;100158.69;;;29.00;8.64
74798;BME280;63326;45.088;7.658;2023-02-12T14:12:29;100172.19;;;28.96;8.19
74798;BME280;63326;45.088;7.658;2023-02-12T14:15:08;100160.28;;;30.21;7.76
74798;BME280;63326;45.088;7.658;2023-02-12T14:27:53;100163.16;;;29.59;8.03
74798;BME280;63326;45.088;7.658;2023-02-12T14:38:01;100132.66;;;28.91;8.14
74798;BME280;63326;45.088;7.658;2023-02-12T14:43:37;100151.91;;;29.86;7.84
74798;BME280;63326;45.088;7.658;2023-02-12T14:48:54;100157.47;;;29.28;8.10
74798;BME280;63326;45.088;7.658;2023-02-12T14:53:52;100149.41;;;29.16;7.97
74798;BME280;63326;45.088;7.658;2023-02-12T14:56:21;100135.03;;;29.14;8.18
74798;BME280;63326;45.088;7.658;2023-02-12T14:58:51;100149.09;;;29.13;8.57
74798;BME280;63326;45.088;7.658;2023-02-12T15:01:46;100151.66;;;29.24;8.28
74798;BME280;63326;45.088;7.658;2023-02-12T15:04:20;100148.06;;;31.04;7.35
74798;BME280;63326;45.088;7.658;2023-02-12T15:06:58;100149.50;;;28.89;8.46
74798;BME280;63326;45.088;7.658;2023-02-12T15:09:35;100153.25;;;28.73;8.89
74798;BME280;63326;45.088;7.658;2023-02-12T15:12:31;100155.72;;;28.37;8.92
74798;BME280;63326;45.088;7.658;2023-02-12T15:17:54;100165.44;;;28.18;8.77
74798;BME280;63326;45.088;7.658;2023-02-12T15:20:24;100160.03;;;28.01;9.20
74798;BME280;63326;45.088;7.658;2023-02-12T15:22:53;100166.94;;;28.04;9.15
74798;BME280;63326;45.088;7.658;2023-02-12T15:25:28;100153.56;;;28.18;9.49
74798;BME280;63326;45.088;7.658;2023-02-12T15:28:02;100166.44;;;27.80;9.20
74798;BME280;63326;45.088;7.658;2023-02-12T15:30:34;100144.88;;;27.55;9.68
74798;BME280;63326;45.088;7.658;2023-02-12T15:33:04;100160.47;;;27.44;9.97
74798;BME280;63326;45.088;7.658;2023-02-12T15:35:33;100154.09;;;27.88;9.20
74798;BME280;63326;45.088;7.658;2023-02-12T15:38:02;100149.38;;;27.61;9.86
74798;BME280;63326;45.088;7.658;2023-02-12T15:40:30;100164.56;;;27.42;10.12
74798;BME280;63326;45.088;7.658;2023-02-12T15:42:58;100173.31;;;27.00;10.23
74798;BME280;63326;45.088;7.658;2023-02-12T15:45:50;100168.91;;;26.99;9.60
74798;BME280;63326;45.088;7.658;2023-02-12T15:48:19;100168.19;;;26.70;10.39
74798;BME280;63326;45.088;7.658;2023-02-12T15:50:55;100157.41;;;26.85;10.36
74798;BME280;63326;45.088;7.658;2023-02-12T15:53:25;100166.94;;;26.44;10.50
74798;BME280;63326;45.088;7.658;2023-02-12T15:55:53;100166.03;;;26.10;10.92
74798;BME280;63326;45.088;7.658;2023-02-12T15:58:30;100178.88;;;25.76;11.46
74798;BME280;63326;45.088;7.658;2023-02-12T16:01:03;100183.63;;;25.69;11.00